• Join FlightAware (Why Join?)
  • Login
  • US Flag 
11:48PM EST


 

Airport Tracker/Info


-or-


 

Live Flight TrackerFlight Track Log ✈ ASQ4231 ✈ 09-Jun-2013 ✈ MMSD / SJD - KIAH

Flight Track Log - Related Links

Times and Time Zones

All times are in EDT time to prevent confusion due to time zone crossing. See the ASQ4231 flight status page for this flight to view local times or setup timezone preferences in your user account.

Time Position Orientation Groundspeed Altitude Reporting Facility
EDT Latitude Longitude Course Direction KTS MPH feet Rate Location/Type
05:22PM 25.5973 -104.5763 64° Northeast  Level FlightAware Approximate
05:23PM 25.6392 -104.4824 64° Northeast  Level FlightAware Approximate
05:24PM 25.6809 -104.3884 64° Northeast  Level FlightAware Approximate
05:25PM 25.7227 -104.2943 64° Northeast  Level FlightAware Approximate
05:26PM 25.7643 -104.2002 64° Northeast  Level FlightAware Approximate
05:27PM 25.8059 -104.1060 64° Northeast  Level FlightAware Approximate
05:28PM 25.8475 -104.0117 64° Northeast  Level FlightAware Approximate
05:29PM 25.8889 -103.9174 64° Northeast  Level FlightAware Approximate
05:30PM 25.9303 -103.8230 64° Northeast  Level FlightAware Approximate
05:31PM 25.9717 -103.7285 64° Northeast  Level FlightAware Approximate
05:32PM 26.0130 -103.6339 64° Northeast  Level FlightAware Approximate
05:33PM 26.0542 -103.5394 64° Northeast  Level FlightAware Approximate
05:34PM 26.0954 -103.4447 64° Northeast  Level FlightAware Approximate
05:35PM 26.1365 -103.3499 64° Northeast  Level FlightAware Approximate
05:36PM 26.1775 -103.2551 64° Northeast  Level FlightAware Approximate
05:37PM 26.2185 -103.1603 64° Northeast  Level FlightAware Approximate
05:38PM 26.2594 -103.0653 64° Northeast  Level FlightAware Approximate
05:39PM 26.3003 -102.9703 64° Northeast  Level FlightAware Approximate
05:40PM 26.3411 -102.8753 64° Northeast  Level FlightAware Approximate
05:41PM 26.3818 -102.7801 64° Northeast  Level FlightAware Approximate
05:42PM 26.4225 -102.6849 64° Northeast  Level FlightAware Approximate
05:43PM 26.4631 -102.5897 65° Northeast  Level FlightAware Approximate
05:44PM 26.5036 -102.4943 65° Northeast  Level FlightAware Approximate
05:45PM 26.5441 -102.3989 65° Northeast  Level FlightAware Approximate
05:46PM 26.5845 -102.3034 65° Northeast  Level FlightAware Approximate
05:47PM 26.6249 -102.2079 65° Northeast  Level FlightAware Approximate
05:48PM 26.6652 -102.1123 65° Northeast  Level FlightAware Approximate
05:49PM 26.7054 -102.0166 65° Northeast  Level FlightAware Approximate
05:50PM 26.7463 -101.9213 63° Northeast  Level FlightAware Approximate
05:51PM 26.7888 -101.8268 63° Northeast  Level FlightAware Approximate
05:52PM 26.8313 -101.7322 63° Northeast  Level FlightAware Approximate
05:53PM 26.8737 -101.6376 63° Northeast  Level FlightAware Approximate
05:54PM 26.9160 -101.5429 63° Northeast  Level FlightAware Approximate
05:55PM 26.9550 -101.4467 74° East  Level FlightAware Approximate
05:56PM 26.9806 -101.3447 74° East  Level FlightAware Approximate
05:57PM 27.0061 -101.2426 74° East  Level FlightAware Approximate
05:58PM 27.0315 -101.1404 74° East  Level FlightAware Approximate
05:59PM 27.0568 -101.0382 74° East  Level FlightAware Approximate
06:00PM 27.0821 -100.9360 74° East  Level FlightAware Approximate
06:01PM 27.1073 -100.8337 75° East  Level FlightAware Approximate
06:02PM 27.1324 -100.7314 75° East  Level FlightAware Approximate
06:03PM 27.1574 -100.6290 75° East  Level FlightAware Approximate
06:04PM 27.1824 -100.5266 75° East  Level FlightAware Approximate
06:05PM 27.2073 -100.4242 75° East  Level FlightAware Approximate
06:05PM 26.7697 -100.0958 75° East 401 461 37,000  Level Houston Center
06:06PM 27.2321 -100.3216 75° East  Level FlightAware Approximate
06:06PM 26.8336 -99.9950 55° Northeast 404 465 37,000  Level Houston Center
06:07PM 27.2574 -100.2193 74° East  Level FlightAware Approximate
06:07PM 26.9042 -99.8992 50° Northeast 401 461 37,000  Level Houston Center
06:08PM 27.2826 -100.1168 74° East  Level FlightAware Approximate
06:08PM 26.9750 -99.8033 50° Northeast 400 460 37,000  Level Houston Center
06:09PM 27.3078 -100.0144 75° East  Level FlightAware Approximate
06:09PM 27.0467 -99.7064 50° Northeast 403 464 37,000  Level Houston Center
06:10PM 27.3329 -99.9118 75° East  Level FlightAware Approximate
06:10PM 27.1183 -99.6086 51° Northeast 404 465 37,000  Level Houston Center
06:11PM 27.3579 -99.8093 75° East  Level FlightAware Approximate
06:11PM 27.2056 -99.4889 51° Northeast 410 472 37,000  Level Houston Center
06:13PM 27.2792 -99.3883 51° Northeast 414 476 37,000  Level Houston Center
06:14PM 27.3528 -99.2892 50° Northeast 414 476 37,000  Level Houston Center
06:15PM 27.4267 -99.1875 51° Northeast 417 480 37,000  Level Houston Center
06:16PM 27.5000 -99.0875 50° Northeast 417 480 37,000  Level Houston Center
06:17PM 27.5825 -98.9747 50° Northeast 433 498 37,000  Level Houston Center
06:18PM 27.6561 -98.8703 51° Northeast 422 486 37,000  Level Houston Center
06:19PM 27.7292 -98.7669 51° Northeast 421 484 37,000  Level Houston Center
06:20PM 27.8028 -98.6644 51° Northeast 419 482 37,000  Level Houston Center
06:21PM 27.8911 -98.5392 51° Northeast 423 487 37,000  Level Houston Center
06:22PM 27.9669 -98.4361 50° Northeast 426 490 37,000  Level Houston Center
06:23PM 28.0400 -98.3308 52° Northeast 427 491 37,000  Level Houston Center
06:24PM 28.1153 -98.2256 51° Northeast 429 494 37,000  Level Houston Center
06:25PM 28.1911 -98.1214 50° Northeast 429 494 37,000  Level Houston Center
06:26PM 28.2739 -98.0036 51° Northeast 434 499 37,000  Level Houston Center
06:27PM 28.3486 -97.8967 52° Northeast 434 499 37,000  Level Houston Center
06:28PM 28.4242 -97.7894 51° Northeast 436 502 37,000  Level Houston Center
06:29PM 28.4997 -97.6811 52° Northeast 436 502 37,000  Level Houston Center
06:30PM 28.5758 -97.5733 51° Northeast 438 504 37,000  Level Houston Center
06:31PM 28.6675 -97.4428 51° Northeast 440 506 37,000  Level Houston Center
06:32PM 28.7436 -97.3342 51° Northeast 440 506 37,000  Level Houston Center
06:33PM 28.8206 -97.2256 51° Northeast 441 507 37,000  Level Houston Center
06:34PM 28.9369 -97.1611 26° Northeast 422 486 37,000 -60 Level Houston Center
06:35PM 29.0456 -97.1781 352° North 429 494 36,900 -420 Descending Houston Center
06:36PM 29.1658 -97.1942 353° North 429 494 36,200 -600 Descending Houston Center
06:37PM 29.2903 -97.1986 358° North 449 517 35,700 -1,500 Descending Houston Center
06:38PM 29.3975 -97.0917 41° Northeast 429 494 33,100 -1,980 Descending Houston Center
06:39PM 29.4239 -96.9531 78° East 430 495 31,700 -2,280 Descending Houston Center
06:40PM 29.4458 -96.8106 80° East 434 499 28,400 -3,540 Descending Houston Center
06:41PM 29.4642 -96.6769 81° East 421 484 24,400 -3,780 Descending Houston Center
06:42PM 29.4069 -96.5661 121° Southeast 403 464 20,700 -3,600 Descending Houston Center
06:43PM 29.3625 -96.4622 116° Southeast 380 437 17,100 -3,480 Descending Houston Center
06:45PM 29.4117 -96.3608 61° Northeast 368 423 13,600 -2,700 Descending Houston Center
06:45PM 29.4633 -96.2861 52° Northeast 371 427 12,400 -1,500 Descending Houston Center
06:46PM 29.4839 -96.2550 53° Northeast 374 430 12,100 -300 Descending Houston Center
06:47PM 29.5456 -96.1667 51° Northeast 355 409 12,000 -60 Descending Houston Center
06:48PM 29.5961 -96.0697 59° Northeast 352 405 12,000 -300 Level Houston Center
06:48PM 29.6425 -95.9756 60° Northeast 352 405 11,500 -720 Descending Houston Center
06:50PM 29.6947 -95.8703 60° Northeast 342 394 10,600 -1,200 Descending Houston Center
06:51PM 29.7369 -95.7844 60° Northeast 294 338 9,000 -1,260 Descending Houston Center
06:52PM 29.7775 -95.7053 59° Northeast 296 341 8,000 -660 Descending Houston Center
06:53PM 29.8208 -95.6183 60° Northeast 295 339 7,700 -660 Descending Houston Center
06:54PM 29.8592 -95.5428 60° Northeast 292 336 6,700 -840 Descending Houston Center
06:55PM 29.8961 -95.4528 65° Northeast 291 335 6,000 -360 Descending Houston Center
06:56PM 29.8964 -95.3636 90° East 278 320 6,000  Level Houston Center
06:57PM 29.8956 -95.2647 91° East 289 333 6,000 -240 Level Houston Center
06:58PM 29.8936 -95.1758 91° East 276 318 5,600 -1,620 Descending Houston Center
06:59PM 29.8922 -95.0917 91° East 266 306 2,700 -1,860 Descending Houston Center
07:00PM 29.8944 -95.0044 88° East 240 276 1,900 -360 Descending Houston Center
07:01PM 29.9483 -95.0117 353° North 217 250 2,000  Climbing Houston Center
07:02PM 29.9708 -95.0733 293° West 211 243 2,000 -60 Level Houston Center
07:03PM 29.9769 -95.1439 276° West 211 243 1,900 -120 Descending Houston Center
07:04PM 29.9783 -95.2078 271° West 184 212 1,800 -420 Descending Houston Center
07:05PM 29.9786 -95.2511 270° West 150 173 1,000 -720 Descending Houston Center
07:06PM 29.9772 -95.3053 268° West 151 174 400 -600 Descending Houston Center